Tallapoosa, Missouri
Current Conditions -  °F | °C
As of 7:04 PM on Sunday 23 Nov 2014 (Local Time) from KPOF Reporting Station
Moderate Fog Moderate Fog  
Wind Chill: 56°   Ceiling: 200
Heat Index: 56°   Visibility: 0.5mi
Dew Point: 54°   Wind: 8mph
Humidity: 93%   Direction: 210°SSW
Pressure: 29.33"   Gusts: NA
Location:  36.51°N, 89.82°W
Report Text: KPOF 240104Z AUTO 21007KT 1/2SM FG VV002 13/12 A2933 RMK AO2 T01330122
Loading
Personal Weather Stations






























Interactive Weather Map New forecast layout! Learn more

10-Day Weather Forecast

Advertisements
Track Severe Weather on mobile